Time;durP1;ratioP1;P1;durP2;ratioP2;P2;SDS_P1;SDS_P2;PMS_P1;PMS_P2;Temp;Humidity;BMP_temperature;BMP_pressure;BME280_temperature;BME280_humidity;BME280_pressure;Samples;Min_cycle;Max_cycle;Signal;HPM_P1;HPM_P2
2023/03/19 00:01:51;;;;;;;9.38;3.10;;;;;;;;;;10374332;28;20076;-60
2023/03/19 00:06:52;;;;;;;5.93;3.00;;;;;;;;;;10373916;28;20033;-60
2023/03/19 00:11:53;;;;;;;7.63;3.63;;;;;;;;;;10373290;28;20030;-59
2023/03/19 00:16:53;;;;;;;6.32;3.50;;;;;;;;;;10373601;28;20034;-59
2023/03/19 00:21:55;;;;;;;8.57;3.65;;;;;;;;;;10373905;28;20436;-59
2023/03/19 00:26:55;;;;;;;11.80;3.55;;;;;;;;;;10373108;28;20464;-59
2023/03/19 00:31:56;;;;;;;8.70;3.90;;;;;;;;;;10372189;28;20022;-59
2023/03/19 00:36:56;;;;;;;5.70;3.58;;;;;;;;;;10372868;28;20072;-60
2023/03/19 00:41:57;;;;;;;10.85;3.92;;;;;;;;;;10372605;28;20018;-60
2023/03/19 00:46:57;;;;;;;5.75;3.20;;;;;;;;;;10372053;28;20100;-60
2023/03/19 00:51:58;;;;;;;5.78;2.97;;;;;;;;;;10372146;28;20030;-60
2023/03/19 00:56:59;;;;;;;4.03;2.80;;;;;;;;;;10371976;28;20034;-59
2023/03/19 01:02:00;;;;;;;9.30;3.22;;;;;;;;;;10371563;28;20026;-60
2023/03/19 01:07:00;;;;;;;6.75;3.20;;;;;;;;;;10371896;28;20099;-60
2023/03/19 01:12:03;;;;;;;6.50;3.45;;;;;;;;;;10371774;28;20056;-60
2023/03/19 01:17:04;;;;;;;3.78;2.95;;;;;;;;;;10371147;28;20137;-59
2023/03/19 01:22:05;;;;;;;9.15;3.60;;;;;;;;;;10370876;28;20036;-59
2023/03/19 01:27:05;;;;;;;5.65;3.35;;;;;;;;;;10370629;28;20053;-60
2023/03/19 01:32:06;;;;;;;5.25;3.22;;;;;;;;;;10370938;28;20049;-59
2023/03/19 01:37:08;;;;;;;3.95;3.08;;;;;;;;;;10370796;28;20116;-60
2023/03/19 01:42:08;;;;;;;4.25;3.25;;;;;;;;;;10370189;28;20036;-59
2023/03/19 01:47:33;;;;;;;4.30;3.10;;;;;;;;;;10369473;28;20052;-60
2023/03/19 01:52:34;;;;;;;6.03;3.70;;;;;;;;;;10368576;28;20370;-60
2023/03/19 01:57:35;;;;;;;4.50;3.47;;;;;;;;;;10369993;28;20032;-60
2023/03/19 02:02:38;;;;;;;4.97;2.95;;;;;;;;;;10369650;28;20489;-59
2023/03/19 02:07:42;;;;;;;6.35;3.15;;;;;;;;;;10369642;28;20108;-60
2023/03/19 02:12:43;;;;;;;5.78;3.65;;;;;;;;;;10368255;28;20038;-60
2023/03/19 02:17:45;;;;;;;5.68;3.42;;;;;;;;;;10369177;28;20052;-61
2023/03/19 02:23:12;;;;;;;4.82;3.15;;;;;;;;;;10368524;28;20180;-60
2023/03/19 02:28:17;;;;;;;4.32;2.97;;;;;;;;;;10338533;28;20478;-60
2023/03/19 02:33:18;;;;;;;4.20;3.13;;;;;;;;;;10367355;28;20034;-60
2023/03/19 02:38:22;;;;;;;6.72;3.47;;;;;;;;;;10367899;28;20458;-59
2023/03/19 02:43:23;;;;;;;5.25;3.30;;;;;;;;;;10367373;28;20045;-59
2023/03/19 02:48:25;;;;;;;7.47;3.30;;;;;;;;;;10368161;28;20045;-59
2023/03/19 02:53:26;;;;;;;4.72;2.90;;;;;;;;;;10366986;28;20034;-59
2023/03/19 02:58:26;;;;;;;4.22;3.08;;;;;;;;;;10368059;28;20444;-60
2023/03/19 03:03:27;;;;;;;5.72;3.13;;;;;;;;;;10367318;28;20435;-60
2023/03/19 03:08:27;;;;;;;7.20;3.03;;;;;;;;;;10367674;28;20037;-60
2023/03/19 03:13:28;;;;;;;4.05;2.97;;;;;;;;;;10367562;28;20092;-60
2023/03/19 03:18:30;;;;;;;6.13;3.28;;;;;;;;;;10366577;28;20095;-60
2023/03/19 03:23:30;;;;;;;5.97;2.95;;;;;;;;;;10367520;28;20030;-59
2023/03/19 03:28:31;;;;;;;5.75;3.47;;;;;;;;;;10367025;28;20026;-59
2023/03/19 03:33:32;;;;;;;3.75;3.03;;;;;;;;;;10367131;28;20076;-60
2023/03/19 03:38:33;;;;;;;5.40;3.50;;;;;;;;;;10367961;28;20026;-59
2023/03/19 03:43:34;;;;;;;6.65;3.28;;;;;;;;;;10366530;28;20081;-59
2023/03/19 03:48:34;;;;;;;4.35;2.97;;;;;;;;;;10367369;28;20509;-59
2023/03/19 03:53:35;;;;;;;5.82;3.33;;;;;;;;;;10366507;28;20026;-59
2023/03/19 03:58:36;;;;;;;4.47;2.80;;;;;;;;;;10366436;28;20030;-60
2023/03/19 04:03:37;;;;;;;4.07;3.17;;;;;;;;;;10366730;28;20041;-60
2023/03/19 04:08:38;;;;;;;3.50;2.85;;;;;;;;;;10374039;28;20034;-59
2023/03/19 04:13:40;;;;;;;8.10;3.15;;;;;;;;;;10373954;28;20062;-59
2023/03/19 04:18:40;;;;;;;3.70;2.80;;;;;;;;;;10373674;28;20033;-60
2023/03/19 04:23:41;;;;;;;4.07;2.80;;;;;;;;;;10373575;28;20026;-60
2023/03/19 04:28:41;;;;;;;4.75;3.00;;;;;;;;;;10373318;28;20029;-59
2023/03/19 04:33:42;;;;;;;4.00;3.10;;;;;;;;;;10372866;28;20022;-60
2023/03/19 04:38:43;;;;;;;3.67;2.92;;;;;;;;;;10371351;28;20268;-60
2023/03/19 04:43:43;;;;;;;3.50;2.97;;;;;;;;;;10372364;28;20034;-60
2023/03/19 04:48:44;;;;;;;3.70;3.20;;;;;;;;;;10372056;28;20049;-59
2023/03/19 04:53:44;;;;;;;3.63;2.80;;;;;;;;;;10372725;28;20057;-59
2023/03/19 04:58:45;;;;;;;3.65;3.00;;;;;;;;;;10372528;28;20080;-59
2023/03/19 05:03:46;;;;;;;4.00;2.65;;;;;;;;;;10371676;28;20168;-59
2023/03/19 05:08:47;;;;;;;5.95;2.90;;;;;;;;;;10371765;28;20041;-59
2023/03/19 05:13:48;;;;;;;3.60;2.83;;;;;;;;;;10371911;28;20066;-59
2023/03/19 05:18:48;;;;;;;3.17;2.92;;;;;;;;;;10371101;28;20021;-59
2023/03/19 05:23:51;;;;;;;4.35;3.15;;;;;;;;;;10370838;28;20539;-59
2023/03/19 05:28:52;;;;;;;3.72;2.63;;;;;;;;;;10370840;28;20521;-59
2023/03/19 05:33:52;;;;;;;4.18;3.03;;;;;;;;;;10371047;28;20085;-59
2023/03/19 05:38:53;;;;;;;3.65;3.30;;;;;;;;;;10371122;28;20036;-59
2023/03/19 05:43:53;;;;;;;4.53;3.00;;;;;;;;;;10370627;28;20389;-59
2023/03/19 05:48:54;;;;;;;5.57;2.75;;;;;;;;;;10369809;28;20498;-59
2023/03/19 05:53:55;;;;;;;11.43;3.10;;;;;;;;;;10370327;28;20416;-59
2023/03/19 05:58:55;;;;;;;4.88;3.00;;;;;;;;;;10369748;28;20469;-59
2023/03/19 06:03:56;;;;;;;5.05;3.20;;;;;;;;;;10370104;28;20033;-59
2023/03/19 06:08:56;;;;;;;6.05;3.20;;;;;;;;;;10369368;28;20218;-59
2023/03/19 06:13:57;;;;;;;3.20;2.90;;;;;;;;;;10368835;28;20394;-60
2023/03/19 06:18:57;;;;;;;3.90;2.78;;;;;;;;;;10369566;28;20505;-60
2023/03/19 06:23:58;;;;;;;5.13;2.70;;;;;;;;;;10369320;28;20462;-60
2023/03/19 06:28:59;;;;;;;3.65;2.72;;;;;;;;;;10367756;28;20045;-60
2023/03/19 06:34:00;;;;;;;5.30;2.95;;;;;;;;;;10368467;28;20029;-59
2023/03/19 06:39:01;;;;;;;4.70;2.95;;;;;;;;;;10368915;28;20499;-60
2023/03/19 06:44:03;;;;;;;4.15;3.45;;;;;;;;;;10368542;28;20112;-60
2023/03/19 06:49:03;;;;;;;3.85;3.15;;;;;;;;;;10368177;28;20524;-60
2023/03/19 06:54:04;;;;;;;5.93;2.88;;;;;;;;;;10367943;28;20058;-60
2023/03/19 06:59:04;;;;;;;3.78;3.17;;;;;;;;;;10367815;28;20026;-60
2023/03/19 07:04:05;;;;;;;5.20;3.30;;;;;;;;;;10367471;28;20029;-59
2023/03/19 07:09:06;;;;;;;3.47;3.17;;;;;;;;;;10367726;28;20030;-59
2023/03/19 07:14:06;;;;;;;3.42;2.72;;;;;;;;;;10367946;28;20088;-59
2023/03/19 07:19:07;;;;;;;4.38;3.17;;;;;;;;;;10367174;28;20061;-59
2023/03/19 07:24:07;;;;;;;4.50;3.03;;;;;;;;;;10367774;28;20080;-60
2023/03/19 07:29:08;;;;;;;5.82;3.22;;;;;;;;;;10367893;28;20026;-60
2023/03/19 07:34:09;;;;;;;3.55;3.03;;;;;;;;;;10366547;28;20556;-59
2023/03/19 07:39:10;;;;;;;3.10;2.80;;;;;;;;;;10368268;28;20076;-59
2023/03/19 07:44:10;;;;;;;4.13;3.10;;;;;;;;;;10375306;28;20311;-59
2023/03/19 07:49:11;;;;;;;3.30;2.90;;;;;;;;;;10374794;28;20053;-59
2023/03/19 07:54:11;;;;;;;3.60;2.92;;;;;;;;;;10374204;28;20501;-59
2023/03/19 07:59:12;;;;;;;6.03;3.25;;;;;;;;;;10374216;28;20386;-59
2023/03/19 08:04:12;;;;;;;3.53;3.22;;;;;;;;;;10373814;28;20482;-59
2023/03/19 08:09:13;;;;;;;7.70;3.88;;;;;;;;;;10373513;28;20076;-59
2023/03/19 08:14:18;;;;;;;7.80;4.90;;;;;;;;;;10373833;28;20033;-60
2023/03/19 08:19:18;;;;;;;12.38;4.65;;;;;;;;;;10372744;28;20059;-59
2023/03/19 08:24:19;;;;;;;11.68;5.50;;;;;;;;;;10373340;28;20091;-60
2023/03/19 08:29:20;;;;;;;12.00;6.80;;;;;;;;;;10373104;28;20406;-60
2023/03/19 08:34:21;;;;;;;15.68;7.78;;;;;;;;;;10372315;28;20417;-59
2023/03/19 08:39:22;;;;;;;12.13;9.10;;;;;;;;;;10372737;28;20557;-60
2023/03/19 08:44:23;;;;;;;14.05;9.90;;;;;;;;;;10373218;28;20026;-60
2023/03/19 08:49:24;;;;;;;15.07;9.98;;;;;;;;;;10372490;28;20467;-59
2023/03/19 08:54:24;;;;;;;15.57;10.95;;;;;;;;;;10370300;28;20022;-59
2023/03/19 08:59:25;;;;;;;16.25;11.13;;;;;;;;;;10371537;28;20080;-60
2023/03/19 09:04:26;;;;;;;17.15;9.95;;;;;;;;;;10371685;28;20280;-60
2023/03/19 09:09:26;;;;;;;14.90;10.07;;;;;;;;;;10372053;28;20470;-59
2023/03/19 09:14:27;;;;;;;13.00;8.40;;;;;;;;;;10371541;28;20112;-59
2023/03/19 09:19:27;;;;;;;10.43;8.05;;;;;;;;;;10371537;28;20033;-59
2023/03/19 09:24:28;;;;;;;16.58;8.13;;;;;;;;;;10371232;28;20028;-60
2023/03/19 09:29:29;;;;;;;8.90;7.70;;;;;;;;;;10371257;28;20473;-60
2023/03/19 09:34:30;;;;;;;12.15;7.75;;;;;;;;;;10370633;28;20527;-59
2023/03/19 09:39:31;;;;;;;9.27;6.80;;;;;;;;;;10370498;28;20128;-59
2023/03/19 09:44:36;;;;;;;8.98;6.22;;;;;;;;;;10370168;28;20037;-59
2023/03/19 09:49:47;;;;;;;8.88;6.63;;;;;;;;;;10370106;28;20391;-59
2023/03/19 09:54:51;;;;;;;9.88;6.15;;;;;;;;;;10369189;28;20081;-59
2023/03/19 09:59:53;;;;;;;8.45;6.43;;;;;;;;;;10368575;28;20073;-59
2023/03/19 10:05:24;;;;;;;6.85;5.38;;;;;;;;;;10369783;28;20350;-59
2023/03/19 10:10:47;;;;;;;7.65;6.00;;;;;;;;;;10368917;28;20025;-59
2023/03/19 10:15:49;;;;;;;8.65;5.90;;;;;;;;;;10369533;28;20084;-58
2023/03/19 10:21:09;;;;;;;7.78;5.68;;;;;;;;;;10367553;28;20034;-59
2023/03/19 10:26:17;;;;;;;8.18;4.88;;;;;;;;;;10368732;28;20026;-59
2023/03/19 10:31:48;;;;;;;8.65;5.90;;;;;;;;;;10368741;28;20421;-58
2023/03/19 10:36:48;;;;;;;7.43;5.57;;;;;;;;;;10367909;28;20061;-59
2023/03/19 10:42:07;;;;;;;7.38;5.28;;;;;;;;;;10368168;28;20022;-58
2023/03/19 10:47:12;;;;;;;;;;;;;;;;;;10368573;28;20142;-59
2023/03/19 10:52:21;;;;;;;5.88;4.80;;;;;;;;;;10367910;28;19952;-59
2023/03/19 10:57:26;;;;;;;;;;;;;;;;;;10368948;28;20022;-59
2023/03/19 11:02:31;;;;;;;7.13;4.75;;;;;;;;;;10367795;28;20055;-59
2023/03/19 11:07:32;;;;;;;8.75;4.90;;;;;;;;;;10368490;28;20176;-59
2023/03/19 11:12:36;;;;;;;5.15;4.60;;;;;;;;;;10367485;28;20557;-59
2023/03/19 11:17:44;;;;;;;5.80;4.25;;;;;;;;;;10372924;28;20363;-59
2023/03/19 11:22:46;;;;;;;5.35;4.20;;;;;;;;;;10375558;28;20104;-59
2023/03/19 11:28:15;;;;;;;7.35;4.38;;;;;;;;;;10376000;28;20088;-59
2023/03/19 11:33:18;;;;;;;;;;;;;;;;;;10375344;28;20030;-60
2023/03/19 11:38:40;;;;;;;9.63;4.45;;;;;;;;;;10375230;28;19917;-59
2023/03/19 11:43:57;;;;;;;5.28;4.25;;;;;;;;;;10374541;28;20486;-59
2023/03/19 11:49:28;;;;;;;4.95;4.20;;;;;;;;;;10374794;28;20053;-59
2023/03/19 11:55:21;;;;;;;5.13;4.47;;;;;;;;;;10374491;28;20026;-59
2023/03/19 12:00:30;;;;;;;5.05;4.28;;;;;;;;;;10374941;28;20056;-59
2023/03/19 12:05:56;;;;;;;5.75;4.15;;;;;;;;;;10373985;28;20485;-59
2023/03/19 12:11:24;;;;;;;5.18;4.07;;;;;;;;;;10371778;28;20600;-59
2023/03/19 12:16:24;;;;;;;5.60;4.15;;;;;;;;;;10372940;28;20033;-58
2023/03/19 12:21:43;;;;;;;5.82;4.47;;;;;;;;;;10373296;28;20405;-58
2023/03/19 12:27:08;;;;;;;;;;;;;;;;;;10374334;28;20040;-57
2023/03/19 12:32:11;;;;;;;6.80;4.35;;;;;;;;;;10372285;28;20011;-57
2023/03/19 12:37:38;;;;;;;19.38;5.05;;;;;;;;;;10374026;28;20064;-57
2023/03/19 12:42:40;;;;;;;11.18;5.45;;;;;;;;;;10371941;28;20080;-57
2023/03/19 12:47:43;;;;;;;12.93;5.53;;;;;;;;;;10371387;28;20232;-57
2023/03/19 12:52:50;;;;;;;10.38;5.10;;;;;;;;;;10371805;28;20030;-57
2023/03/19 12:57:57;;;;;;;8.15;4.82;;;;;;;;;;10371218;28;20105;-56
2023/03/19 13:03:27;;;;;;;9.35;5.03;;;;;;;;;;10371162;28;20036;-57
2023/03/19 13:08:56;;;;;;;11.52;5.15;;;;;;;;;;10370806;28;20402;-57
2023/03/19 13:14:28;;;;;;;13.18;4.75;;;;;;;;;;10371149;28;20041;-57
2023/03/19 13:19:52;;;;;;;8.55;4.50;;;;;;;;;;10368216;28;20073;-57
2023/03/19 13:24:54;;;;;;;7.60;4.22;;;;;;;;;;10368818;28;20056;-56
2023/03/19 13:30:09;;;;;;;5.93;4.18;;;;;;;;;;10370627;28;20029;-58
2023/03/19 13:36:04;;;;;;;7.13;4.10;;;;;;;;;;10370890;28;20030;-59
2023/03/19 13:41:25;;;;;;;6.45;3.97;;;;;;;;;;10360998;28;20041;-58
2023/03/19 13:46:36;;;;;;;8.48;4.43;;;;;;;;;;10369963;28;20532;-59
2023/03/19 13:51:37;;;;;;;6.72;3.90;;;;;;;;;;10369694;28;20611;-58
2023/03/19 13:57:08;;;;;;;6.95;3.60;;;;;;;;;;10370405;28;20271;-58
2023/03/19 14:02:14;;;;;;;8.23;3.70;;;;;;;;;;10370133;28;20084;-58
2023/03/19 14:07:23;;;;;;;6.38;3.92;;;;;;;;;;10369405;28;20030;-58
2023/03/19 14:12:36;;;;;;;7.10;4.00;;;;;;;;;;10370026;28;20089;-59
2023/03/19 14:17:40;;;;;;;5.60;3.53;;;;;;;;;;10368671;28;20030;-59
2023/03/19 14:23:09;;;;;;;5.90;3.63;;;;;;;;;;10370138;28;20026;-58
2023/03/19 14:28:09;;;;;;;4.00;3.30;;;;;;;;;;10369620;28;20026;-59
2023/03/19 14:33:26;;;;;;;8.48;3.10;;;;;;;;;;10368772;28;20038;-60
2023/03/19 14:38:42;;;;;;;3.67;3.00;;;;;;;;;;10367838;28;20022;-59
2023/03/19 14:44:27;;;;;;;4.35;3.10;;;;;;;;;;10368055;28;20124;-60
2023/03/19 14:49:43;;;;;;;9.13;3.47;;;;;;;;;;10368194;28;20050;-60
2023/03/19 14:55:08;;;;;;;5.28;3.53;;;;;;;;;;10367917;28;20034;-59
2023/03/19 15:00:18;;;;;;;5.40;3.45;;;;;;;;;;10367769;28;20055;-61
2023/03/19 15:05:24;;;;;;;4.43;3.13;;;;;;;;;;10367842;28;20385;-59
2023/03/19 15:10:29;;;;;;;4.80;3.28;;;;;;;;;;10367672;28;20030;-60
2023/03/19 15:15:59;;;;;;;4.03;3.00;;;;;;;;;;10368177;28;20033;-60
2023/03/19 15:21:02;;;;;;;5.90;3.42;;;;;;;;;;10346282;28;20482;-60
2023/03/19 15:26:03;;;;;;;4.82;3.08;;;;;;;;;;10366148;28;20038;-60
2023/03/19 15:31:05;;;;;;;4.18;3.30;;;;;;;;;;10366752;28;20037;-59
2023/03/19 15:36:17;;;;;;;12.57;3.67;;;;;;;;;;10367359;28;20041;-59
2023/03/19 15:41:19;;;;;;;6.30;3.10;;;;;;;;;;10367785;28;20038;-60
2023/03/19 15:46:25;;;;;;;5.10;3.10;;;;;;;;;;10367142;28;20054;-60
2023/03/19 15:51:27;;;;;;;6.82;3.40;;;;;;;;;;10366072;28;20030;-60
2023/03/19 15:56:29;;;;;;;6.72;3.33;;;;;;;;;;10366914;28;20517;-60
2023/03/19 16:01:32;;;;;;;7.35;3.00;;;;;;;;;;10369107;28;20037;-58
2023/03/19 16:06:38;;;;;;;9.43;3.17;;;;;;;;;;10375178;28;20041;-59
2023/03/19 16:11:44;;;;;;;4.65;3.30;;;;;;;;;;10374033;28;20400;-60
2023/03/19 16:16:46;;;;;;;3.95;2.90;;;;;;;;;;10373552;28;20032;-60
2023/03/19 16:21:47;;;;;;;22.63;3.90;;;;;;;;;;10373632;28;20122;-60
2023/03/19 16:26:48;;;;;;;18.17;4.35;;;;;;;;;;10373204;28;20367;-59
2023/03/19 16:31:58;;;;;;;11.65;3.50;;;;;;;;;;10373514;28;20188;-60
2023/03/19 16:37:00;;;;;;;11.02;4.15;;;;;;;;;;10372660;28;20045;-60
2023/03/19 16:42:32;;;;;;;8.55;3.60;;;;;;;;;;10372051;28;20168;-59
2023/03/19 16:47:33;;;;;;;12.40;3.20;;;;;;;;;;10370145;28;20041;-59
2023/03/19 16:52:35;;;;;;;8.48;3.50;;;;;;;;;;10372668;28;20034;-60
2023/03/19 16:57:35;;;;;;;6.60;3.53;;;;;;;;;;10371889;28;20036;-59
2023/03/19 17:02:37;;;;;;;20.38;5.35;;;;;;;;;;10370537;28;20080;-60
2023/03/19 17:07:37;;;;;;;18.35;5.28;;;;;;;;;;10372054;28;20077;-60
2023/03/19 17:12:38;;;;;;;13.68;4.50;;;;;;;;;;10371023;28;20049;-60
2023/03/19 17:17:38;;;;;;;13.35;4.32;;;;;;;;;;10371198;28;20037;-59
2023/03/19 17:22:39;;;;;;;13.98;4.18;;;;;;;;;;10371306;28;20445;-59
2023/03/19 17:27:40;;;;;;;9.75;4.13;;;;;;;;;;10371302;28;20378;-59
2023/03/19 17:32:46;;;;;;;12.00;3.92;;;;;;;;;;10370627;28;20088;-59
2023/03/19 17:37:49;;;;;;;14.82;4.13;;;;;;;;;;10369244;28;20370;-59
2023/03/19 17:42:50;;;;;;;17.08;4.20;;;;;;;;;;10369971;28;20025;-60
2023/03/19 17:47:55;;;;;;;15.68;3.72;;;;;;;;;;10369200;28;20121;-60
2023/03/19 17:52:56;;;;;;;12.57;3.95;;;;;;;;;;10368643;28;20466;-61
2023/03/19 17:57:58;;;;;;;6.05;3.58;;;;;;;;;;10369987;28;20057;-60
2023/03/19 18:02:58;;;;;;;8.98;3.28;;;;;;;;;;10369631;28;20029;-60
2023/03/19 18:07:59;;;;;;;13.52;3.70;;;;;;;;;;10368916;28;20030;-60
2023/03/19 18:13:00;;;;;;;8.50;3.65;;;;;;;;;;10369742;28;20026;-60
2023/03/19 18:18:05;;;;;;;7.57;3.63;;;;;;;;;;10369208;28;20029;-60
2023/03/19 18:23:06;;;;;;;7.28;3.58;;;;;;;;;;10368323;28;20073;-59
2023/03/19 18:28:07;;;;;;;4.90;3.42;;;;;;;;;;10368685;28;20034;-59
2023/03/19 18:33:21;;;;;;;10.00;3.70;;;;;;;;;;10368429;28;20034;-60
2023/03/19 18:38:25;;;;;;;6.97;3.15;;;;;;;;;;10367377;28;20026;-60
2023/03/19 18:43:25;;;;;;;10.75;4.25;;;;;;;;;;10368645;28;20033;-60
2023/03/19 18:48:31;;;;;;;8.57;3.70;;;;;;;;;;10368294;28;20053;-60
2023/03/19 18:53:32;;;;;;;11.60;3.60;;;;;;;;;;10367578;28;20164;-60
2023/03/19 18:58:40;;;;;;;7.78;3.35;;;;;;;;;;10368160;28;20441;-57
2023/03/19 19:03:42;;;;;;;9.00;3.88;;;;;;;;;;10366751;28;20069;-59
2023/03/19 19:08:42;;;;;;;7.38;3.42;;;;;;;;;;10368810;28;20048;-58
2023/03/19 19:13:50;;;;;;;5.00;2.78;;;;;;;;;;10367724;28;20029;-58
2023/03/19 19:18:52;;;;;;;14.87;3.97;;;;;;;;;;10361432;28;20037;-58
2023/03/19 19:23:52;;;;;;;10.18;3.88;;;;;;;;;;10367179;28;20030;-59
2023/03/19 19:28:57;;;;;;;8.48;3.38;;;;;;;;;;10367695;28;20022;-59
2023/03/19 19:34:01;;;;;;;5.30;3.10;;;;;;;;;;10366394;28;20159;-59
2023/03/19 19:39:01;;;;;;;10.60;3.30;;;;;;;;;;10374047;28;20443;-58
2023/03/19 19:44:12;;;;;;;8.18;2.90;;;;;;;;;;10374779;28;20065;-58
2023/03/19 19:54:27;;;;;;;3.90;2.95;;;;;;;;;;10331808;28;20042;-51
2023/03/19 19:59:32;;;;;;;7.72;3.30;;;;;;;;;;10333942;28;20458;-51
2023/03/19 20:04:33;;;;;;;5.22;3.03;;;;;;;;;;10333616;28;20041;-49
2023/03/19 20:09:34;;;;;;;9.57;3.13;;;;;;;;;;10333379;28;20040;-51
2023/03/19 20:14:42;;;;;;;5.72;3.33;;;;;;;;;;10333362;28;20026;-52
2023/03/19 20:19:43;;;;;;;4.90;3.00;;;;;;;;;;10326834;28;20023;-52
2023/03/19 20:24:44;;;;;;;5.25;3.15;;;;;;;;;;10332245;28;20084;-64
2023/03/19 20:29:45;;;;;;;5.97;3.05;;;;;;;;;;10330626;28;20367;-49
2023/03/19 20:34:46;;;;;;;5.50;3.13;;;;;;;;;;10331669;28;20030;-52
2023/03/19 20:39:47;;;;;;;4.82;2.70;;;;;;;;;;10332523;28;20041;-50
2023/03/19 20:45:01;;;;;;;6.03;3.00;;;;;;;;;;10332162;28;20034;-72
2023/03/19 20:50:02;;;;;;;4.35;2.58;;;;;;;;;;10329062;28;20126;-50
2023/03/19 20:55:03;;;;;;;3.78;2.80;;;;;;;;;;10331753;28;20558;-50
2023/03/19 21:00:20;;;;;;;7.20;2.97;;;;;;;;;;10332038;28;20486;-52
2023/03/19 21:05:22;;;;;;;5.55;3.03;;;;;;;;;;10330708;28;20035;-49
2023/03/19 21:10:41;;;;;;;5.05;2.97;;;;;;;;;;10330184;28;20414;-51
2023/03/19 21:15:42;;;;;;;5.65;3.00;;;;;;;;;;10331103;28;20482;-49
2023/03/19 21:20:46;;;;;;;5.10;2.80;;;;;;;;;;10330707;28;20062;-68
2023/03/19 21:25:55;;;;;;;4.07;2.75;;;;;;;;;;10329522;28;20037;-49
2023/03/19 21:30:57;;;;;;;;;;;;;;;;;;10327772;28;20113;-49
2023/03/19 21:36:05;;;;;;;4.00;2.83;;;;;;;;;;10327963;28;19920;-49
2023/03/19 21:41:36;;;;;;;4.17;2.70;;;;;;;;;;10329479;28;20178;-50
2023/03/19 21:46:45;;;;;;;4.95;2.97;;;;;;;;;;10328656;28;20088;-58
2023/03/19 21:51:46;;;;;;;8.73;2.90;;;;;;;;;;10328736;28;20484;-48
2023/03/19 21:56:54;;;;;;;5.32;2.70;;;;;;;;;;10329436;28;20022;-50
2023/03/19 22:01:55;;;;;;;8.27;2.65;;;;;;;;;;10326929;28;20382;-47
2023/03/19 22:07:00;;;;;;;4.10;2.50;;;;;;;;;;10327256;28;20039;-46
2023/03/19 22:12:01;;;;;;;3.67;2.78;;;;;;;;;;10328693;28;20467;-48
2023/03/19 22:17:04;;;;;;;4.15;2.72;;;;;;;;;;10328803;28;20027;-47
2023/03/19 22:22:05;;;;;;;4.85;2.50;;;;;;;;;;10326829;28;20022;-47
2023/03/19 22:27:12;;;;;;;4.50;2.60;;;;;;;;;;10328084;28;20390;-48
2023/03/19 22:32:17;;;;;;;5.13;2.65;;;;;;;;;;10323515;28;20088;-50
2023/03/19 22:37:25;;;;;;;4.10;2.60;;;;;;;;;;10328717;28;20030;-47
2023/03/19 22:42:26;;;;;;;2.50;2.30;;;;;;;;;;10328075;28;20093;-56
2023/03/19 22:47:34;;;;;;;3.33;2.63;;;;;;;;;;10324224;28;20038;-48
2023/03/19 22:52:34;;;;;;;5.18;2.60;;;;;;;;;;10326338;28;20060;-66
2023/03/19 22:57:35;;;;;;;4.50;2.50;;;;;;;;;;10327043;28;20034;-47
2023/03/19 23:02:35;;;;;;;5.28;2.70;;;;;;;;;;10327024;28;20033;-49
2023/03/19 23:07:36;;;;;;;3.08;2.45;;;;;;;;;;10325686;28;20026;-47
2023/03/19 23:12:37;;;;;;;4.57;2.70;;;;;;;;;;10326508;28;20237;-47
2023/03/19 23:17:37;;;;;;;2.70;2.50;;;;;;;;;;10327467;28;20489;-47
2023/03/19 23:22:38;;;;;;;5.95;2.30;;;;;;;;;;10325844;28;20080;-47
2023/03/19 23:27:40;;;;;;;4.55;2.30;;;;;;;;;;10326752;28;20121;-48
2023/03/19 23:32:41;;;;;;;4.28;2.28;;;;;;;;;;10325564;28;20026;-47
2023/03/19 23:37:41;;;;;;;2.72;2.45;;;;;;;;;;10327123;28;20046;-47
2023/03/19 23:42:49;;;;;;;6.15;3.00;;;;;;;;;;10327000;28;20463;-52
2023/03/19 23:47:50;;;;;;;3.20;2.33;;;;;;;;;;10326489;28;20097;-47
2023/03/19 23:52:51;;;;;;;3.50;2.28;;;;;;;;;;10325124;28;20508;-48
2023/03/19 23:57:52;;;;;;;2.92;2.30;;;;;;;;;;10326801;28;20034;-47
